createdAt,value
2017-10-15T00:00:14.416Z,1019.31
2017-10-15T00:00:40.568Z,1019.32
2017-10-15T00:01:06.803Z,1019.32
2017-10-15T00:01:32.957Z,1019.34
2017-10-15T00:01:59.145Z,1019.35
2017-10-15T00:02:25.289Z,1019.33
2017-10-15T00:02:51.436Z,1019.29
2017-10-15T00:03:17.665Z,1019.31
2017-10-15T00:03:43.825Z,1019.3
2017-10-15T00:04:09.967Z,1019.27
2017-10-15T00:04:36.146Z,1019.25
2017-10-15T00:05:02.319Z,1019.27
2017-10-15T00:05:28.523Z,1019.26
2017-10-15T00:05:54.706Z,1019.27
2017-10-15T00:06:20.840Z,1019.25
2017-10-15T00:06:47.025Z,1019.26
2017-10-15T00:07:13.164Z,1019.26
2017-10-15T00:07:39.340Z,1019.24
2017-10-15T00:08:05.481Z,1019.26
2017-10-15T00:08:31.630Z,1019.24
2017-10-15T00:08:57.841Z,1019.2
2017-10-15T00:09:24.054Z,1019.19
2017-10-15T00:09:50.217Z,1019.25
2017-10-15T00:10:16.440Z,1019.22
2017-10-15T00:10:42.596Z,1019.2
2017-10-15T00:11:08.731Z,1019.22
2017-10-15T00:11:34.931Z,1019.25
2017-10-15T00:12:01.072Z,1019.18
2017-10-15T00:12:27.248Z,1019.2
2017-10-15T00:12:53.390Z,1019.21
2017-10-15T00:13:19.581Z,1019.23
2017-10-15T00:13:45.715Z,1019.18
2017-10-15T00:14:11.870Z,1019.18
2017-10-15T00:14:38.015Z,1019.17
2017-10-15T00:15:04.194Z,1019.18
2017-10-15T00:15:30.344Z,1019.19
2017-10-15T00:15:56.500Z,1019.19
2017-10-15T00:16:22.645Z,1019.16
2017-10-15T00:16:48.835Z,1019.2
2017-10-15T00:17:14.987Z,1019.16
2017-10-15T00:17:41.126Z,1019.2
2017-10-15T00:18:07.311Z,1019.18
2017-10-15T00:18:33.448Z,1019.19
2017-10-15T00:18:59.633Z,1019.18
2017-10-15T00:19:25.774Z,1019.17
2017-10-15T00:19:51.951Z,1019.18
2017-10-15T00:20:18.093Z,1019.18
2017-10-15T00:20:44.283Z,1019.16
2017-10-15T00:21:10.435Z,1019.17
2017-10-15T00:21:36.591Z,1019.18
2017-10-15T00:22:02.758Z,1019.21
2017-10-15T00:22:28.931Z,1019.19
2017-10-15T00:22:55.112Z,1019.2
2017-10-15T00:23:21.276Z,1019.17
2017-10-15T00:23:47.431Z,1019.19
2017-10-15T00:24:13.574Z,1019.19
2017-10-15T00:24:39.754Z,1019.2
2017-10-15T00:25:05.893Z,1019.17
2017-10-15T00:25:32.089Z,1019.19
2017-10-15T00:25:58.227Z,1019.18
2017-10-15T00:26:24.383Z,1019.18
2017-10-15T00:26:50.561Z,1019.13
2017-10-15T00:27:16.748Z,1019.15
2017-10-15T00:27:42.900Z,1019.15
2017-10-15T00:28:09.055Z,1019.16
2017-10-15T00:28:35.201Z,1019.14
2017-10-15T00:29:01.401Z,1019.14
2017-10-15T00:29:27.554Z,1019.14
2017-10-15T00:29:53.712Z,1019.17
2017-10-15T00:30:19.896Z,1019.18
2017-10-15T00:30:46.049Z,1019.19
2017-10-15T00:31:12.257Z,1019.18
2017-10-15T00:31:38.426Z,1019.2
2017-10-15T00:32:04.705Z,1019.19
2017-10-15T00:32:30.819Z,1019.21
2017-10-15T00:32:56.956Z,1019.17
2017-10-15T00:33:23.161Z,1019.23
2017-10-15T00:33:49.796Z,1019.21
2017-10-15T00:34:15.929Z,1019.21
2017-10-15T00:34:42.068Z,1019.21
2017-10-15T00:35:08.227Z,1019.2
2017-10-15T00:35:34.410Z,1019.2
2017-10-15T00:36:00.539Z,1019.2
2017-10-15T00:36:26.722Z,1019.22
2017-10-15T00:36:52.871Z,1019.21
2017-10-15T00:37:19.036Z,1019.19
2017-10-15T00:37:45.169Z,1019.23
2017-10-15T00:38:11.316Z,1019.19
2017-10-15T00:38:37.467Z,1019.24
2017-10-15T00:39:03.669Z,1019.23
2017-10-15T00:39:29.809Z,1019.2
2017-10-15T00:39:55.985Z,1019.21
2017-10-15T00:40:22.354Z,1019.18
2017-10-15T00:40:48.514Z,1019.22
2017-10-15T00:41:14.697Z,1019.2
2017-10-15T00:41:40.838Z,1019.21
2017-10-15T00:42:07.032Z,1019.22
2017-10-15T00:42:33.174Z,1019.2
2017-10-15T00:42:59.391Z,1019.2
2017-10-15T00:43:25.530Z,1019.27
2017-10-15T00:43:51.685Z,1019.23
2017-10-15T00:44:17.827Z,1019.24
2017-10-15T00:44:44.024Z,1019.21
2017-10-15T00:45:10.171Z,1019.22
2017-10-15T00:45:36.352Z,1019.22
2017-10-15T00:46:02.591Z,1019.19
2017-10-15T00:46:28.760Z,1019.22
2017-10-15T00:46:54.921Z,1019.2
2017-10-15T00:47:21.114Z,1019.2
2017-10-15T00:47:47.664Z,1019.2
2017-10-15T00:48:13.829Z,1019.21
2017-10-15T00:48:39.977Z,1019.19
2017-10-15T00:49:06.150Z,1019.2
2017-10-15T00:49:32.325Z,1019.13
2017-10-15T00:49:58.456Z,1019.16
2017-10-15T00:50:24.636Z,1019.17
2017-10-15T00:50:50.783Z,1019.17
2017-10-15T00:51:16.936Z,1019.14
2017-10-15T00:51:43.090Z,1019.19
2017-10-15T00:52:09.249Z,1019.16
2017-10-15T00:52:35.428Z,1019.13
2017-10-15T00:53:01.597Z,1019.16
2017-10-15T00:53:27.782Z,1019.17
2017-10-15T00:53:53.968Z,1019.15
2017-10-15T00:54:20.176Z,1019.17
2017-10-15T00:54:46.365Z,1019.15
2017-10-15T00:55:12.552Z,1019.14
2017-10-15T00:55:39.026Z,1019.18
2017-10-15T00:56:05.191Z,1019.14
2017-10-15T00:56:31.339Z,1019.13
2017-10-15T00:56:57.543Z,1019.14
2017-10-15T00:57:23.692Z,1019.13
2017-10-15T00:57:49.859Z,1019.16
2017-10-15T00:58:16.004Z,1019.14
2017-10-15T00:58:42.164Z,1019.12
2017-10-15T00:59:08.301Z,1019.14
2017-10-15T00:59:34.444Z,1019.19
2017-10-15T01:00:00.626Z,1019.09
2017-10-15T01:00:26.814Z,1019.11
2017-10-15T01:00:52.968Z,1019.17
2017-10-15T01:01:19.135Z,1019.16
2017-10-15T01:01:45.289Z,1019.17
2017-10-15T01:02:11.431Z,1019.18
2017-10-15T01:02:37.608Z,1019.17
2017-10-15T01:03:03.767Z,1019.16
2017-10-15T01:03:29.908Z,1019.19
2017-10-15T01:03:56.060Z,1019.14
2017-10-15T01:04:22.206Z,1019.15
2017-10-15T01:04:48.362Z,1019.16
2017-10-15T01:05:14.549Z,1019.16
2017-10-15T01:05:40.699Z,1019.17
2017-10-15T01:06:06.850Z,1019.14
2017-10-15T01:06:32.999Z,1019.16
2017-10-15T01:06:59.147Z,1019.16
2017-10-15T01:07:25.293Z,1019.14
2017-10-15T01:07:51.449Z,1019.14
2017-10-15T01:08:17.589Z,1019.18
2017-10-15T01:08:43.744Z,1019.12
2017-10-15T01:09:09.889Z,1019.14
2017-10-15T01:09:36.038Z,1019.16
2017-10-15T01:10:02.202Z,1019.15
2017-10-15T01:10:28.380Z,1019.18
2017-10-15T01:10:54.537Z,1019.14
2017-10-15T01:11:20.696Z,1019.14
2017-10-15T01:11:46.852Z,1019.16
2017-10-15T01:12:13.004Z,1019.17
2017-10-15T01:12:39.158Z,1019.16
2017-10-15T01:13:05.312Z,1019.15
2017-10-15T01:13:31.466Z,1019.17
2017-10-15T01:13:57.613Z,1019.15
2017-10-15T01:14:23.758Z,1019.18
2017-10-15T01:14:49.904Z,1019.17
2017-10-15T01:15:16.052Z,1019.15
2017-10-15T01:15:42.196Z,1019.13
2017-10-15T01:16:08.369Z,1019.17
2017-10-15T01:16:34.562Z,1019.16
2017-10-15T01:17:00.719Z,1019.17
2017-10-15T01:17:26.851Z,1019.17
2017-10-15T01:17:53.009Z,1019.18
2017-10-15T01:18:19.148Z,1019.2
2017-10-15T01:18:45.354Z,1019.19
2017-10-15T01:19:11.476Z,1019.2
2017-10-15T01:19:37.634Z,1019.17
2017-10-15T01:20:03.790Z,1019.17
2017-10-15T01:20:29.931Z,1019.2
2017-10-15T01:20:56.083Z,1019.16
2017-10-15T01:21:22.226Z,1019.16
2017-10-15T01:21:48.379Z,1019.18
2017-10-15T01:22:14.528Z,1019.17
2017-10-15T01:22:40.673Z,1019.16
2017-10-15T01:23:06.848Z,1019.15
2017-10-15T01:23:33.029Z,1019.15
2017-10-15T01:23:59.171Z,1019.16
2017-10-15T01:24:25.323Z,1019.18
2017-10-15T01:24:51.468Z,1019.16
2017-10-15T01:25:17.635Z,1019.18
2017-10-15T01:25:43.781Z,1019.19
2017-10-15T01:26:09.935Z,1019.17
2017-10-15T01:26:36.078Z,1019.14
2017-10-15T01:27:02.226Z,1019.15
2017-10-15T01:27:28.378Z,1019.17
2017-10-15T01:27:54.526Z,1019.14
2017-10-15T01:28:20.675Z,1019.18
2017-10-15T01:28:46.816Z,1019.16
2017-10-15T01:29:12.964Z,1019.19
2017-10-15T01:29:39.108Z,1019.17
2017-10-15T01:30:05.289Z,1019.16
2017-10-15T01:30:31.433Z,1019.17
2017-10-15T01:30:57.586Z,1019.19
2017-10-15T01:31:23.736Z,1019.17
2017-10-15T01:31:49.890Z,1019.14
2017-10-15T01:32:16.034Z,1019.21
2017-10-15T01:32:42.209Z,1019.14
2017-10-15T01:33:08.370Z,1019.17
2017-10-15T01:33:34.509Z,1019.13
2017-10-15T01:34:00.651Z,1019.14
2017-10-15T01:34:26.797Z,1019.14
2017-10-15T01:34:52.954Z,1019.12
2017-10-15T01:35:19.105Z,1019.16
2017-10-15T01:35:45.247Z,1019.13
2017-10-15T01:36:11.394Z,1019.1
2017-10-15T01:36:37.569Z,1019.12
2017-10-15T01:37:03.711Z,1019.12
2017-10-15T01:37:29.869Z,1019.13
2017-10-15T01:37:56.013Z,1019.11
2017-10-15T01:38:22.162Z,1019.11
2017-10-15T01:38:48.308Z,1019.12
2017-10-15T01:39:14.454Z,1019.12
2017-10-15T01:39:40.597Z,1019.11
2017-10-15T01:40:06.751Z,1019.1
2017-10-15T01:40:32.912Z,1019.05
2017-10-15T01:40:59.052Z,1019.1
2017-10-15T01:41:25.200Z,1019.1
2017-10-15T01:41:51.341Z,1019.09
2017-10-15T01:42:17.511Z,1019.07
2017-10-15T01:42:43.669Z,1019.08
2017-10-15T01:43:09.807Z,1019.09
2017-10-15T01:43:35.968Z,1019.1
2017-10-15T01:44:02.107Z,1019.08
2017-10-15T01:44:28.261Z,1019.09
2017-10-15T01:44:54.400Z,1019.1
2017-10-15T01:45:20.577Z,1019.08
2017-10-15T01:45:46.721Z,1019.05
2017-10-15T01:46:12.874Z,1019.04
2017-10-15T01:46:39.024Z,1019.06
2017-10-15T01:47:05.168Z,1019.1
2017-10-15T01:47:31.313Z,1019.08
2017-10-15T01:47:57.476Z,1019.06
2017-10-15T01:48:23.617Z,1019.03
2017-10-15T01:48:49.810Z,1019.06
2017-10-15T01:49:15.964Z,1019.05
2017-10-15T01:49:42.108Z,1019.05
2017-10-15T01:50:08.260Z,1019.01
2017-10-15T01:50:34.403Z,1019.05
2017-10-15T01:51:00.547Z,1019.02
2017-10-15T01:51:26.700Z,1019.03
2017-10-15T01:51:52.847Z,1019.02
2017-10-15T01:52:18.992Z,1019.03
2017-10-15T01:52:45.137Z,1019
2017-10-15T01:53:11.283Z,1018.96
2017-10-15T01:53:37.418Z,1018.99
2017-10-15T01:54:03.575Z,1019
2017-10-15T01:54:29.730Z,1018.98
2017-10-15T01:54:55.869Z,1018.99
2017-10-15T01:55:22.018Z,1019
2017-10-15T01:55:48.167Z,1018.99
2017-10-15T01:56:14.342Z,1019.02
2017-10-15T01:56:40.499Z,1018.97
2017-10-15T01:57:06.652Z,1018.97
2017-10-15T01:57:32.792Z,1018.99
2017-10-15T01:57:58.939Z,1018.99
2017-10-15T01:58:25.083Z,1018.96
2017-10-15T01:58:51.227Z,1018.95
2017-10-15T01:59:17.381Z,1018.97
2017-10-15T01:59:43.529Z,1018.94
2017-10-15T02:00:09.667Z,1018.95
2017-10-15T02:00:35.820Z,1018.94
2017-10-15T02:01:01.961Z,1018.95
2017-10-15T02:01:28.106Z,1018.92
2017-10-15T02:01:54.260Z,1018.91
2017-10-15T02:02:20.398Z,1018.92
2017-10-15T02:02:46.572Z,1018.93
2017-10-15T02:03:12.728Z,1018.95
2017-10-15T02:03:38.878Z,1018.91
2017-10-15T02:04:05.021Z,1018.92
2017-10-15T02:04:31.171Z,1018.9
2017-10-15T02:04:57.316Z,1018.91
2017-10-15T02:05:23.462Z,1018.91
2017-10-15T02:05:49.613Z,1018.88
2017-10-15T02:06:15.752Z,1018.91
2017-10-15T02:06:41.928Z,1018.93
2017-10-15T02:07:08.077Z,1018.91
2017-10-15T02:07:34.225Z,1018.94
2017-10-15T02:08:00.372Z,1018.97
2017-10-15T02:08:26.523Z,1018.98
2017-10-15T02:08:52.671Z,1018.95
2017-10-15T02:09:18.805Z,1018.96
2017-10-15T02:09:44.953Z,1018.96
2017-10-15T02:10:11.099Z,1018.97
2017-10-15T02:10:37.248Z,1019
2017-10-15T02:11:03.429Z,1018.97
2017-10-15T02:11:29.574Z,1018.95
2017-10-15T02:11:55.720Z,1018.97
2017-10-15T02:12:21.889Z,1018.93
2017-10-15T02:12:48.038Z,1018.88
2017-10-15T02:13:14.214Z,1018.91
2017-10-15T02:13:40.417Z,1018.95
2017-10-15T02:14:06.591Z,1018.93
2017-10-15T02:14:32.734Z,1018.9
2017-10-15T02:14:58.888Z,1018.91
2017-10-15T02:15:25.030Z,1018.93
2017-10-15T02:15:51.173Z,1018.91
2017-10-15T02:16:17.320Z,1018.95
2017-10-15T02:16:43.465Z,1018.9
2017-10-15T02:17:09.610Z,1018.9
2017-10-15T02:17:35.761Z,1018.95
2017-10-15T02:18:01.909Z,1018.93
2017-10-15T02:18:28.049Z,1018.94
2017-10-15T02:18:54.197Z,1018.93
2017-10-15T02:19:20.341Z,1018.93
2017-10-15T02:19:46.484Z,1018.9
2017-10-15T02:20:12.637Z,1018.93
2017-10-15T02:20:38.808Z,1018.95
2017-10-15T02:21:04.948Z,1018.95
2017-10-15T02:21:31.091Z,1018.93
2017-10-15T02:21:57.243Z,1018.95
2017-10-15T02:22:23.389Z,1018.93
2017-10-15T02:22:49.537Z,1018.95
2017-10-15T02:23:15.679Z,1018.94
2017-10-15T02:23:41.831Z,1018.9
2017-10-15T02:24:08.003Z,1018.95
2017-10-15T02:24:34.151Z,1018.92
2017-10-15T02:25:00.306Z,1018.95
2017-10-15T02:25:26.448Z,1018.92
2017-10-15T02:25:52.600Z,1018.93
2017-10-15T02:26:18.739Z,1018.9
2017-10-15T02:26:44.883Z,1018.96
2017-10-15T02:27:11.034Z,1018.95
2017-10-15T02:27:37.184Z,1018.95
2017-10-15T02:28:03.339Z,1018.94
2017-10-15T02:28:29.471Z,1018.92
2017-10-15T02:28:55.614Z,1018.94
2017-10-15T02:29:21.766Z,1018.93
2017-10-15T02:29:47.908Z,1018.94
2017-10-15T02:30:14.057Z,1018.92
2017-10-15T02:30:40.202Z,1018.93
2017-10-15T02:31:06.346Z,1018.91
2017-10-15T02:31:32.496Z,1018.92
2017-10-15T02:31:58.644Z,1018.93
2017-10-15T02:32:24.798Z,1018.94
2017-10-15T02:32:50.940Z,1018.92
2017-10-15T02:33:17.081Z,1018.92
2017-10-15T02:33:43.253Z,1018.93
2017-10-15T02:34:09.404Z,1018.9
2017-10-15T02:34:35.554Z,1018.91
2017-10-15T02:35:01.696Z,1018.93
2017-10-15T02:35:27.866Z,1018.93
2017-10-15T02:35:53.994Z,1018.9
2017-10-15T02:36:20.158Z,1018.92
2017-10-15T02:36:46.311Z,1018.92
2017-10-15T02:37:12.458Z,1018.94
2017-10-15T02:37:38.603Z,1018.93
2017-10-15T02:38:04.755Z,1018.89
2017-10-15T02:38:30.897Z,1018.92
2017-10-15T02:38:57.043Z,1018.92
2017-10-15T02:39:23.195Z,1018.94
2017-10-15T02:39:49.345Z,1018.92
2017-10-15T02:40:15.484Z,1018.89
2017-10-15T02:40:41.630Z,1018.93
2017-10-15T02:41:07.780Z,1018.9
2017-10-15T02:41:33.923Z,1018.87
2017-10-15T02:42:00.072Z,1018.86
2017-10-15T02:42:26.219Z,1018.85
2017-10-15T02:42:52.364Z,1018.86
2017-10-15T02:43:18.516Z,1018.88
2017-10-15T02:43:44.653Z,1018.87
2017-10-15T02:44:10.807Z,1018.85
2017-10-15T02:44:36.949Z,1018.84
2017-10-15T02:45:03.090Z,1018.86
2017-10-15T02:45:29.243Z,1018.87
2017-10-15T02:45:55.385Z,1018.87
2017-10-15T02:46:21.551Z,1018.88
2017-10-15T02:46:47.699Z,1018.86
2017-10-15T02:47:13.844Z,1018.85
2017-10-15T02:47:40.006Z,1018.89
2017-10-15T02:48:06.147Z,1018.88
2017-10-15T02:48:32.327Z,1018.85
2017-10-15T02:48:58.470Z,1018.87
2017-10-15T02:49:24.608Z,1018.85
2017-10-15T02:49:50.771Z,1018.88
2017-10-15T02:50:16.907Z,1018.88
2017-10-15T02:50:43.054Z,1018.86
2017-10-15T02:51:09.201Z,1018.87
2017-10-15T02:51:35.346Z,1018.89
2017-10-15T02:52:01.511Z,1018.85
2017-10-15T02:52:27.667Z,1018.87
2017-10-15T02:52:53.825Z,1018.87
2017-10-15T02:53:19.977Z,1018.89
2017-10-15T02:53:46.124Z,1018.87
2017-10-15T02:54:12.303Z,1018.88
2017-10-15T02:54:38.449Z,1018.89
2017-10-15T02:55:04.600Z,1018.92
2017-10-15T02:55:30.746Z,1018.9
2017-10-15T02:55:56.893Z,1018.94
2017-10-15T02:56:23.042Z,1018.86
2017-10-15T02:56:49.183Z,1018.89
2017-10-15T02:57:15.334Z,1018.89
2017-10-15T02:57:41.479Z,1018.9
2017-10-15T02:58:07.633Z,1018.92
2017-10-15T02:58:33.776Z,1018.96
2017-10-15T02:58:59.921Z,1018.9
2017-10-15T02:59:26.070Z,1018.92
2017-10-15T02:59:52.218Z,1018.94
2017-10-15T03:00:18.394Z,1018.9
2017-10-15T03:00:44.545Z,1018.91
2017-10-15T03:01:10.690Z,1018.91
2017-10-15T03:01:36.842Z,1018.89
2017-10-15T03:02:02.983Z,1018.92
2017-10-15T03:02:29.135Z,1018.91
2017-10-15T03:02:55.274Z,1018.92
2017-10-15T03:03:21.426Z,1018.93
2017-10-15T03:03:47.573Z,1018.87
2017-10-15T03:04:13.723Z,1018.89
2017-10-15T03:04:39.868Z,1018.89
2017-10-15T03:05:06.033Z,1018.9
2017-10-15T03:05:32.186Z,1018.9
2017-10-15T03:05:58.331Z,1018.92
2017-10-15T03:06:24.475Z,1018.93
2017-10-15T03:06:50.615Z,1018.91
2017-10-15T03:07:16.770Z,1018.94
2017-10-15T03:07:42.909Z,1018.97
2017-10-15T03:08:09.060Z,1018.95
2017-10-15T03:08:35.249Z,1018.97
2017-10-15T03:09:01.394Z,1018.96
2017-10-15T03:09:27.544Z,1018.98
2017-10-15T03:09:53.687Z,1018.97
2017-10-15T03:10:19.834Z,1018.98
2017-10-15T03:10:45.980Z,1018.96
2017-10-15T03:11:12.130Z,1019
2017-10-15T03:11:38.279Z,1019.02
2017-10-15T03:12:04.418Z,1018.99
2017-10-15T03:12:30.559Z,1019
2017-10-15T03:12:56.710Z,1018.98
2017-10-15T03:13:22.853Z,1019.03
2017-10-15T03:13:48.997Z,1019.02
2017-10-15T03:14:15.157Z,1019
2017-10-15T03:14:41.297Z,1019.03
2017-10-15T03:15:07.445Z,1019.07
2017-10-15T03:15:33.591Z,1019.05
2017-10-15T03:15:59.734Z,1019.04
2017-10-15T03:16:25.878Z,1019.06
2017-10-15T03:16:52.045Z,1019.05
2017-10-15T03:17:18.193Z,1019.03
2017-10-15T03:17:44.342Z,1019.08
2017-10-15T03:18:10.496Z,1019.04
2017-10-15T03:18:36.642Z,1019.05
2017-10-15T03:19:02.794Z,1019.06
2017-10-15T03:19:28.942Z,1019.06
2017-10-15T03:19:55.090Z,1019.08
2017-10-15T03:20:21.232Z,1019.13
2017-10-15T03:20:47.376Z,1019.11
2017-10-15T03:21:13.551Z,1019.07
2017-10-15T03:21:39.696Z,1019.08
2017-10-15T03:22:05.842Z,1019.11
2017-10-15T03:22:31.989Z,1019.13
2017-10-15T03:22:58.141Z,1019.14
2017-10-15T03:23:24.316Z,1019.14
2017-10-15T03:23:50.475Z,1019.12
2017-10-15T03:24:16.604Z,1019.15
2017-10-15T03:24:42.762Z,1019.12
2017-10-15T03:25:08.932Z,1019.09
2017-10-15T03:25:35.073Z,1019.12
2017-10-15T03:26:01.218Z,1019.1
2017-10-15T03:26:27.367Z,1019.12
2017-10-15T03:26:53.510Z,1019.1
2017-10-15T03:27:19.667Z,1019.1
2017-10-15T03:27:45.812Z,1019.12
2017-10-15T03:28:11.956Z,1019.12
2017-10-15T03:28:38.104Z,1019.11
2017-10-15T03:29:04.253Z,1019.1
2017-10-15T03:29:30.393Z,1019.1
2017-10-15T03:29:56.546Z,1019.12
2017-10-15T03:30:22.721Z,1019.11
2017-10-15T03:30:48.872Z,1019.09
2017-10-15T03:31:15.011Z,1019.1
2017-10-15T03:31:41.164Z,1019.08
2017-10-15T03:32:07.305Z,1019.07
2017-10-15T03:32:33.479Z,1019.11
2017-10-15T03:32:59.628Z,1019.07
2017-10-15T03:33:25.777Z,1019.11
2017-10-15T03:33:51.921Z,1019.07
2017-10-15T03:34:18.063Z,1019.1
2017-10-15T03:34:44.208Z,1019.08
2017-10-15T03:35:10.358Z,1019.07
2017-10-15T03:35:36.500Z,1019.11
2017-10-15T03:36:02.653Z,1019.09
2017-10-15T03:36:28.808Z,1019.09
2017-10-15T03:36:54.951Z,1019.08
2017-10-15T03:37:21.096Z,1019.08
2017-10-15T03:37:47.242Z,1019.11
2017-10-15T03:38:13.395Z,1019.1
2017-10-15T03:38:39.534Z,1019.08
2017-10-15T03:39:05.682Z,1019.06
2017-10-15T03:39:31.829Z,1019.07
2017-10-15T03:39:57.981Z,1019.07
2017-10-15T03:40:24.121Z,1019.08
2017-10-15T03:40:50.268Z,1019.04
2017-10-15T03:41:16.417Z,1019.05
2017-10-15T03:41:42.563Z,1019.01
2017-10-15T03:42:08.714Z,1019.02
2017-10-15T03:42:34.853Z,1018.98
2017-10-15T03:43:00.995Z,1019.01
2017-10-15T03:43:27.147Z,1019.01
2017-10-15T03:43:53.312Z,1019
2017-10-15T03:44:19.452Z,1019
2017-10-15T03:44:45.631Z,1018.98
2017-10-15T03:45:11.779Z,1018.99
2017-10-15T03:45:37.922Z,1018.99
2017-10-15T03:46:04.076Z,1018.97
2017-10-15T03:46:30.216Z,1018.97
2017-10-15T03:46:56.360Z,1018.98
2017-10-15T03:47:22.514Z,1018.96
2017-10-15T03:47:48.663Z,1018.96
2017-10-15T03:48:14.807Z,1018.94
2017-10-15T03:48:40.960Z,1018.93
2017-10-15T03:49:07.109Z,1018.95
2017-10-15T03:49:33.275Z,1018.95
2017-10-15T03:49:59.423Z,1018.97
2017-10-15T03:50:25.570Z,1018.95
2017-10-15T03:50:51.715Z,1018.96
2017-10-15T03:51:17.885Z,1018.93
2017-10-15T03:51:44.029Z,1018.94
2017-10-15T03:52:10.174Z,1018.94
2017-10-15T03:52:36.322Z,1018.95
2017-10-15T03:53:02.466Z,1018.98
2017-10-15T03:53:28.617Z,1018.96
2017-10-15T03:53:54.764Z,1018.94
2017-10-15T03:54:20.904Z,1018.94
2017-10-15T03:54:47.049Z,1018.93
2017-10-15T03:55:13.202Z,1018.95
2017-10-15T03:55:39.352Z,1018.97
2017-10-15T03:56:05.501Z,1018.95
2017-10-15T03:56:31.651Z,1018.94
2017-10-15T03:56:57.791Z,1018.93
2017-10-15T03:57:23.931Z,1018.93
2017-10-15T03:57:50.083Z,1018.94
2017-10-15T03:58:16.227Z,1018.94
2017-10-15T03:58:42.376Z,1018.95
2017-10-15T03:59:08.520Z,1018.91
2017-10-15T03:59:34.673Z,1018.94
2017-10-15T04:00:00.814Z,1018.89
2017-10-15T04:00:26.966Z,1018.91
2017-10-15T04:00:53.115Z,1018.91
2017-10-15T04:01:19.262Z,1018.9
2017-10-15T04:01:45.412Z,1018.88
2017-10-15T04:02:11.587Z,1018.88
2017-10-15T04:02:37.730Z,1018.87
2017-10-15T04:03:03.895Z,1018.89
2017-10-15T04:03:30.046Z,1018.88
2017-10-15T04:03:56.212Z,1018.87
2017-10-15T04:04:22.363Z,1018.88
2017-10-15T04:04:48.505Z,1018.88
2017-10-15T04:05:14.658Z,1018.86
2017-10-15T04:05:40.821Z,1018.85
2017-10-15T04:06:06.988Z,1018.89
2017-10-15T04:06:33.146Z,1018.87
2017-10-15T04:06:59.338Z,1018.85
2017-10-15T04:07:25.487Z,1018.86
2017-10-15T04:07:51.634Z,1018.85
2017-10-15T04:08:17.779Z,1018.88
2017-10-15T04:08:43.928Z,1018.82
2017-10-15T04:09:10.072Z,1018.86
2017-10-15T04:09:36.222Z,1018.85
2017-10-15T04:10:02.366Z,1018.82
2017-10-15T04:10:28.506Z,1018.84
2017-10-15T04:10:54.657Z,1018.85
2017-10-15T04:11:20.800Z,1018.84
2017-10-15T04:11:46.952Z,1018.88
2017-10-15T04:12:13.092Z,1018.83
2017-10-15T04:12:39.244Z,1018.83
2017-10-15T04:13:05.387Z,1018.86
2017-10-15T04:13:31.538Z,1018.86
2017-10-15T04:13:57.683Z,1018.83
2017-10-15T04:14:23.828Z,1018.88
2017-10-15T04:14:49.980Z,1018.87
2017-10-15T04:15:16.123Z,1018.88
2017-10-15T04:15:42.269Z,1018.89
2017-10-15T04:16:08.452Z,1018.88
2017-10-15T04:16:34.622Z,1018.89
2017-10-15T04:17:00.791Z,1018.85
2017-10-15T04:17:26.952Z,1018.88
2017-10-15T04:17:53.101Z,1018.86
2017-10-15T04:18:19.244Z,1018.89
2017-10-15T04:18:45.420Z,1018.89
2017-10-15T04:19:11.568Z,1018.9
2017-10-15T04:19:37.718Z,1018.87
2017-10-15T04:20:03.870Z,1018.9
2017-10-15T04:20:30.007Z,1018.88
2017-10-15T04:20:56.155Z,1018.87
2017-10-15T04:21:22.298Z,1018.84
2017-10-15T04:21:48.461Z,1018.89
2017-10-15T04:22:14.601Z,1018.85
2017-10-15T04:22:40.748Z,1018.89
2017-10-15T04:23:06.890Z,1018.86
2017-10-15T04:23:33.040Z,1018.86
2017-10-15T04:23:59.203Z,1018.84
2017-10-15T04:24:25.351Z,1018.86
2017-10-15T04:24:51.507Z,1018.87
2017-10-15T04:25:17.648Z,1018.86
2017-10-15T04:25:43.798Z,1018.84
2017-10-15T04:26:09.941Z,1018.86
2017-10-15T04:26:36.113Z,1018.86
2017-10-15T04:27:02.251Z,1018.88
2017-10-15T04:27:28.403Z,1018.87
2017-10-15T04:27:54.555Z,1018.85
2017-10-15T04:28:20.694Z,1018.88
2017-10-15T04:28:46.846Z,1018.88
2017-10-15T04:29:12.988Z,1018.9
2017-10-15T04:29:39.133Z,1018.88
2017-10-15T04:30:05.287Z,1018.89
2017-10-15T04:30:31.424Z,1018.89
2017-10-15T04:30:57.607Z,1018.88
2017-10-15T04:31:23.756Z,1018.87
2017-10-15T04:31:49.896Z,1018.87
2017-10-15T04:32:16.047Z,1018.91
2017-10-15T04:32:42.197Z,1018.93
2017-10-15T04:33:08.343Z,1018.87
2017-10-15T04:33:34.484Z,1018.89
2017-10-15T04:34:00.641Z,1018.87
2017-10-15T04:34:26.777Z,1018.9
2017-10-15T04:34:52.936Z,1018.89
2017-10-15T04:35:19.103Z,1018.87
2017-10-15T04:35:45.279Z,1018.88
2017-10-15T04:36:11.421Z,1018.87
2017-10-15T04:36:37.571Z,1018.88
2017-10-15T04:37:03.713Z,1018.85
2017-10-15T04:37:29.866Z,1018.88
2017-10-15T04:37:56.010Z,1018.88
2017-10-15T04:38:22.152Z,1018.87
2017-10-15T04:38:48.305Z,1018.87
2017-10-15T04:39:14.444Z,1018.85
2017-10-15T04:39:40.594Z,1018.86
2017-10-15T04:40:06.745Z,1018.87
2017-10-15T04:40:32.913Z,1018.87
2017-10-15T04:40:59.061Z,1018.87
2017-10-15T04:41:25.221Z,1018.85
2017-10-15T04:41:51.358Z,1018.86
2017-10-15T04:42:17.505Z,1018.83
2017-10-15T04:42:43.655Z,1018.86
2017-10-15T04:43:09.801Z,1018.85
2017-10-15T04:43:35.943Z,1018.83
2017-10-15T04:44:02.091Z,1018.8
2017-10-15T04:44:28.241Z,1018.82
2017-10-15T04:44:54.382Z,1018.82
2017-10-15T04:45:20.532Z,1018.83
2017-10-15T04:45:46.681Z,1018.81
2017-10-15T04:46:12.823Z,1018.84
2017-10-15T04:46:38.973Z,1018.82
2017-10-15T04:47:05.149Z,1018.81
2017-10-15T04:47:31.289Z,1018.82
2017-10-15T04:47:57.434Z,1018.8
2017-10-15T04:48:23.573Z,1018.79
2017-10-15T04:48:49.726Z,1018.83
2017-10-15T04:49:15.897Z,1018.78
2017-10-15T04:49:42.044Z,1018.79
2017-10-15T04:50:08.191Z,1018.79
2017-10-15T04:50:34.339Z,1018.78
2017-10-15T04:51:00.483Z,1018.76
2017-10-15T04:51:26.645Z,1018.81
2017-10-15T04:51:52.776Z,1018.78
2017-10-15T04:52:18.917Z,1018.8
2017-10-15T04:52:45.066Z,1018.79
2017-10-15T04:53:11.235Z,1018.79
2017-10-15T04:53:37.383Z,1018.79
2017-10-15T04:54:03.526Z,1018.8
2017-10-15T04:54:29.679Z,1018.81
2017-10-15T04:54:55.828Z,1018.75
2017-10-15T04:55:21.970Z,1018.8
2017-10-15T04:55:48.122Z,1018.73
2017-10-15T04:56:14.264Z,1018.76
2017-10-15T04:56:40.409Z,1018.76
2017-10-15T04:57:06.559Z,1018.78
2017-10-15T04:57:32.703Z,1018.81
2017-10-15T04:57:58.854Z,1018.78
2017-10-15T04:58:25.003Z,1018.75
2017-10-15T04:58:51.146Z,1018.75
2017-10-15T04:59:17.297Z,1018.74
2017-10-15T04:59:43.444Z,1018.77
2017-10-15T05:00:09.594Z,1018.77
2017-10-15T05:00:35.737Z,1018.72
2017-10-15T05:01:01.887Z,1018.74
2017-10-15T05:01:28.027Z,1018.72
2017-10-15T05:01:54.195Z,1018.74
2017-10-15T05:02:20.346Z,1018.76
2017-10-15T05:02:46.492Z,1018.72
2017-10-15T05:03:12.637Z,1018.69
2017-10-15T05:03:38.787Z,1018.7
2017-10-15T05:04:04.933Z,1018.67
2017-10-15T05:04:31.075Z,1018.69
2017-10-15T05:04:57.229Z,1018.67
2017-10-15T05:05:23.376Z,1018.69
2017-10-15T05:05:49.519Z,1018.71
2017-10-15T05:06:15.665Z,1018.7
2017-10-15T05:06:41.821Z,1018.68
2017-10-15T05:07:07.964Z,1018.7
2017-10-15T05:07:34.106Z,1018.64
2017-10-15T05:08:00.251Z,1018.65
2017-10-15T05:08:26.407Z,1018.69
2017-10-15T05:08:52.548Z,1018.68
2017-10-15T05:09:18.696Z,1018.64
2017-10-15T05:09:44.865Z,1018.64
2017-10-15T05:10:11.017Z,1018.64
2017-10-15T05:10:37.169Z,1018.64
2017-10-15T05:11:03.315Z,1018.61
2017-10-15T05:11:29.487Z,1018.61
2017-10-15T05:11:55.633Z,1018.59
2017-10-15T05:12:21.785Z,1018.62
2017-10-15T05:12:47.923Z,1018.57
2017-10-15T05:13:14.108Z,1018.55
2017-10-15T05:13:40.250Z,1018.59
2017-10-15T05:14:06.392Z,1018.62
2017-10-15T05:14:32.543Z,1018.55
2017-10-15T05:14:58.697Z,1018.53
2017-10-15T05:15:24.837Z,1018.52
2017-10-15T05:15:50.986Z,1018.51
2017-10-15T05:16:17.154Z,1018.52
2017-10-15T05:16:43.308Z,1018.53
2017-10-15T05:17:09.451Z,1018.53
2017-10-15T05:17:35.594Z,1018.54